Terminal Aerodrome Forecast
Issued by NWS

Home | Current Version | Previous Version | Text Only | Print | Product List | Glossary On
Versions: 1 2 3 4 5 6 7 8 9 10 11 12
000
FTUS46 KHNX 211730
TAFMCE
TAF
KMCE 211730Z 2118/2218 VRB04KT P6SM SCT060 BKN120
     FM212100 33009KT P6SM BKN060 BKN120
      TEMPO 2122/2202 VRB15G25KT 5SM -TSRA BR BKN060CB=

USA.gov is the U.S. government's official web portal to all federal, state and local government web resources and services.